createdAt,value
2022-11-22T00:00:04.942Z,9.17
2022-11-22T00:01:07.447Z,9.13
2022-11-22T00:02:09.049Z,8.60
2022-11-22T00:03:10.370Z,5.83
2022-11-22T00:04:11.719Z,7.40
2022-11-22T00:05:13.446Z,6.60
2022-11-22T00:06:14.728Z,8.40
2022-11-22T00:07:16.115Z,7.80
2022-11-22T00:08:17.447Z,6.70
2022-11-22T00:09:18.948Z,5.93
2022-11-22T00:10:20.352Z,8.13
2022-11-22T00:11:21.771Z,7.37
2022-11-22T00:12:23.119Z,7.43
2022-11-22T00:13:24.615Z,7.37
2022-11-22T00:14:26.340Z,7.07
2022-11-22T00:15:27.741Z,6.73
2022-11-22T00:16:29.139Z,7.27
2022-11-22T00:17:31.427Z,7.93
2022-11-22T00:18:32.752Z,7.70
2022-11-22T00:19:35.488Z,9.00
2022-11-22T00:20:37.084Z,8.57
2022-11-22T00:21:38.467Z,7.57
2022-11-22T00:22:44.495Z,6.80
2022-11-22T00:23:46.243Z,8.70
2022-11-22T00:24:47.815Z,10.83
2022-11-22T00:25:49.210Z,5.73
2022-11-22T00:26:50.537Z,8.00
2022-11-22T00:27:51.912Z,6.73
2022-11-22T00:28:53.257Z,6.13
2022-11-22T00:29:54.772Z,6.77
2022-11-22T00:30:56.142Z,5.90
2022-11-22T00:31:57.464Z,7.90
2022-11-22T00:32:58.832Z,7.43
2022-11-22T00:34:00.203Z,9.10
2022-11-22T00:35:01.592Z,5.90
2022-11-22T00:36:03.026Z,5.90
2022-11-22T00:37:04.386Z,6.17
2022-11-22T00:38:05.713Z,7.00
2022-11-22T00:39:07.191Z,7.57
2022-11-22T00:40:09.466Z,9.80
2022-11-22T00:41:10.872Z,6.30
2022-11-22T00:42:12.232Z,5.57
2022-11-22T00:43:13.609Z,6.93
2022-11-22T00:44:15.028Z,6.87
2022-11-22T00:45:16.686Z,8.67
2022-11-22T00:46:17.992Z,8.23
2022-11-22T00:47:19.387Z,6.13
2022-11-22T00:48:21.049Z,8.47
2022-11-22T00:49:22.468Z,5.93
2022-11-22T00:50:23.847Z,7.23
2022-11-22T00:51:25.265Z,8.23
2022-11-22T00:52:26.627Z,6.57
2022-11-22T00:53:28.029Z,6.30
2022-11-22T00:54:29.344Z,5.03
2022-11-22T00:55:30.668Z,6.10
2022-11-22T00:56:32.078Z,5.60
2022-11-22T00:57:33.477Z,8.13
2022-11-22T00:58:34.912Z,7.97
2022-11-22T00:59:36.259Z,7.33
2022-11-22T01:00:37.717Z,7.03
2022-11-22T01:01:39.141Z,6.10
2022-11-22T01:02:40.511Z,6.67
2022-11-22T01:03:41.838Z,5.33
2022-11-22T01:04:43.262Z,9.27
2022-11-22T01:05:44.631Z,6.70
2022-11-22T01:06:46.067Z,5.30
2022-11-22T01:07:47.441Z,4.50
2022-11-22T01:08:49.044Z,7.00
2022-11-22T01:09:50.441Z,5.80
2022-11-22T01:10:58.261Z,5.80
2022-11-22T01:11:59.632Z,5.93
2022-11-22T01:13:00.931Z,5.27
2022-11-22T01:14:02.410Z,7.67
2022-11-22T01:15:04.087Z,5.70
2022-11-22T01:16:07.060Z,6.50
2022-11-22T01:17:08.392Z,9.40
2022-11-22T01:18:09.765Z,5.87
2022-11-22T01:19:11.076Z,5.00
2022-11-22T01:20:12.600Z,7.40
2022-11-22T01:21:14.169Z,7.67
2022-11-22T01:22:15.509Z,6.77
2022-11-22T01:23:16.838Z,4.97
2022-11-22T01:24:18.171Z,6.80
2022-11-22T01:25:19.503Z,4.50
2022-11-22T01:26:20.792Z,8.87
2022-11-22T01:27:22.219Z,6.90
2022-11-22T01:28:23.768Z,5.30
2022-11-22T01:29:25.132Z,4.87
2022-11-22T01:30:26.564Z,7.67
2022-11-22T01:31:29.858Z,5.80
2022-11-22T01:32:31.159Z,7.90
2022-11-22T01:33:32.492Z,6.70
2022-11-22T01:34:34.459Z,5.40
2022-11-22T01:35:35.847Z,6.13
2022-11-22T01:36:37.211Z,4.93
2022-11-22T01:37:38.588Z,8.00
2022-11-22T01:38:39.999Z,7.43
2022-11-22T01:39:41.352Z,6.47
2022-11-22T01:40:42.700Z,6.70
2022-11-22T01:41:44.011Z,4.70
2022-11-22T01:42:50.195Z,5.97
2022-11-22T01:43:51.484Z,5.20
2022-11-22T01:44:53.327Z,5.80
2022-11-22T01:45:58.358Z,5.93
2022-11-22T01:47:03.181Z,6.60
2022-11-22T01:48:07.827Z,7.37
2022-11-22T01:49:30.584Z,7.40
2022-11-22T01:50:33.512Z,4.47
2022-11-22T01:51:40.264Z,6.30
2022-11-22T01:52:41.611Z,4.23
2022-11-22T01:53:42.972Z,6.63
2022-11-22T01:54:47.909Z,4.87
2022-11-22T01:55:50.517Z,7.07
2022-11-22T01:56:54.448Z,6.33
2022-11-22T01:57:56.595Z,5.03
2022-11-22T01:58:59.846Z,6.67
2022-11-22T02:00:02.245Z,5.37
2022-11-22T02:01:07.618Z,8.30
2022-11-22T02:02:08.999Z,7.50
2022-11-22T02:03:11.863Z,5.40
2022-11-22T02:04:15.120Z,9.13
2022-11-22T02:05:18.123Z,6.20
2022-11-22T02:06:20.009Z,6.80
2022-11-22T02:07:23.973Z,3.87
2022-11-22T02:08:30.391Z,6.60
2022-11-22T02:09:32.620Z,8.43
2022-11-22T02:10:35.660Z,6.60
2022-11-22T02:11:38.312Z,5.43
2022-11-22T02:12:39.714Z,6.73
2022-11-22T02:13:42.350Z,6.30
2022-11-22T02:14:44.084Z,9.20
2022-11-22T02:15:45.398Z,5.33
2022-11-22T02:16:47.642Z,3.87
2022-11-22T02:17:49.068Z,6.30
2022-11-22T02:18:50.371Z,5.97
2022-11-22T02:19:53.408Z,6.20
2022-11-22T02:20:54.867Z,7.77
2022-11-22T02:21:59.624Z,6.03
2022-11-22T02:23:00.916Z,6.97
2022-11-22T02:24:02.190Z,5.37
2022-11-22T02:25:13.467Z,4.70
2022-11-22T02:26:14.872Z,6.00
2022-11-22T02:27:16.181Z,6.13
2022-11-22T02:28:17.563Z,6.63
2022-11-22T02:29:19.136Z,5.33
2022-11-22T02:30:20.708Z,7.43
2022-11-22T02:31:35.379Z,5.67
2022-11-22T02:32:36.799Z,5.47
2022-11-22T02:33:38.137Z,4.93
2022-11-22T02:34:47.127Z,8.17
2022-11-22T02:35:48.711Z,3.70
2022-11-22T02:36:51.158Z,5.93
2022-11-22T02:37:56.136Z,7.63
2022-11-22T02:38:57.444Z,5.43
2022-11-22T02:40:01.241Z,5.03
2022-11-22T02:41:05.913Z,6.53
2022-11-22T02:42:07.478Z,6.13
2022-11-22T02:43:10.922Z,4.67
2022-11-22T02:44:12.439Z,7.60
2022-11-22T02:45:13.946Z,8.07
2022-11-22T02:46:20.472Z,4.97
2022-11-22T02:47:21.770Z,5.23
2022-11-22T02:48:23.144Z,8.33
2022-11-22T02:49:25.070Z,7.43
2022-11-22T02:50:26.482Z,7.03
2022-11-22T02:51:27.892Z,6.80
2022-11-22T02:52:29.283Z,6.90
2022-11-22T02:53:30.951Z,6.57
2022-11-22T02:54:32.318Z,8.53
2022-11-22T02:55:34.039Z,7.20
2022-11-22T02:56:35.406Z,6.03
2022-11-22T02:57:36.693Z,6.80
2022-11-22T02:58:38.374Z,6.90
2022-11-22T02:59:39.690Z,6.50
2022-11-22T03:00:41.144Z,7.07
2022-11-22T03:01:43.877Z,4.70
2022-11-22T03:02:45.195Z,4.50
2022-11-22T03:03:46.517Z,6.40
2022-11-22T03:04:47.837Z,6.70
2022-11-22T03:05:49.171Z,6.40
2022-11-22T03:06:51.518Z,9.03
2022-11-22T03:07:52.954Z,7.20
2022-11-22T03:08:56.545Z,5.40
2022-11-22T03:09:58.089Z,4.93
2022-11-22T03:10:59.404Z,6.37
2022-11-22T03:12:00.843Z,7.27
2022-11-22T03:13:02.168Z,8.53
2022-11-22T03:14:03.504Z,6.43
2022-11-22T03:15:05.067Z,5.83
2022-11-22T03:16:06.548Z,6.13
2022-11-22T03:17:07.954Z,5.73
2022-11-22T03:18:09.387Z,7.83
2022-11-22T03:19:11.148Z,7.83
2022-11-22T03:20:12.655Z,7.83
2022-11-22T03:21:14.010Z,5.27
2022-11-22T03:22:15.354Z,6.07
2022-11-22T03:23:16.715Z,7.37
2022-11-22T03:24:20.118Z,7.07
2022-11-22T03:25:21.490Z,5.23
2022-11-22T03:26:23.488Z,5.70
2022-11-22T03:27:24.844Z,7.17
2022-11-22T03:28:33.327Z,5.37
2022-11-22T03:29:34.643Z,6.13
2022-11-22T03:30:39.086Z,5.93
2022-11-22T03:31:40.448Z,5.00
2022-11-22T03:32:41.811Z,6.80
2022-11-22T03:33:43.244Z,6.83
2022-11-22T03:34:44.644Z,6.87
2022-11-22T03:35:46.013Z,5.07
2022-11-22T03:36:47.463Z,6.20
2022-11-22T03:37:48.832Z,7.60
2022-11-22T03:38:50.593Z,5.97
2022-11-22T03:39:51.950Z,9.77
2022-11-22T03:40:53.272Z,6.37
2022-11-22T03:41:56.336Z,6.97
2022-11-22T03:43:01.143Z,6.30
2022-11-22T03:44:02.523Z,6.73
2022-11-22T03:45:03.969Z,9.13
2022-11-22T03:46:05.264Z,7.77
2022-11-22T03:47:06.579Z,4.73
2022-11-22T03:48:07.884Z,7.03
2022-11-22T03:49:10.292Z,7.73
2022-11-22T03:50:11.701Z,7.03
2022-11-22T03:51:13.096Z,10.63
2022-11-22T03:52:14.936Z,8.10
2022-11-22T03:53:16.262Z,8.73
2022-11-22T03:54:17.637Z,7.37
2022-11-22T03:55:18.994Z,6.23
2022-11-22T03:56:20.312Z,11.10
2022-11-22T03:57:21.646Z,6.70
2022-11-22T03:58:22.948Z,5.83
2022-11-22T03:59:24.296Z,13.10
2022-11-22T04:00:25.624Z,8.63
2022-11-22T04:01:27.010Z,8.53
2022-11-22T04:02:28.363Z,8.03
2022-11-22T04:03:29.752Z,5.77
2022-11-22T04:04:31.055Z,7.60
2022-11-22T04:05:32.347Z,7.87
2022-11-22T04:06:33.681Z,11.47
2022-11-22T04:07:35.056Z,7.53
2022-11-22T04:08:36.462Z,11.50
2022-11-22T04:09:37.866Z,8.23
2022-11-22T04:10:39.252Z,12.97
2022-11-22T04:11:40.631Z,10.67
2022-11-22T04:12:41.974Z,10.37
2022-11-22T04:14:01.988Z,9.37
2022-11-22T04:15:09.275Z,12.33
2022-11-22T04:16:10.555Z,12.23
2022-11-22T04:17:12.555Z,13.13
2022-11-22T04:18:14.249Z,6.53
2022-11-22T04:19:15.588Z,12.30
2022-11-22T04:20:39.900Z,11.00
2022-11-22T04:21:41.253Z,8.53
2022-11-22T04:22:42.604Z,9.73
2022-11-22T04:23:43.923Z,12.77
2022-11-22T04:25:04.019Z,8.80
2022-11-22T04:26:05.432Z,12.93
2022-11-22T04:27:06.811Z,13.03
2022-11-22T04:28:09.563Z,12.93
2022-11-22T04:29:10.933Z,12.43
2022-11-22T04:30:16.024Z,13.17
2022-11-22T04:31:40.306Z,9.37
2022-11-22T04:32:47.507Z,11.50
2022-11-22T04:33:48.802Z,13.03
2022-11-22T04:34:50.181Z,7.73
2022-11-22T04:35:51.817Z,11.33
2022-11-22T04:36:53.364Z,7.80
2022-11-22T04:37:54.668Z,15.43
2022-11-22T04:38:55.993Z,9.73
2022-11-22T04:39:57.328Z,7.50
2022-11-22T04:40:58.751Z,9.43
2022-11-22T04:42:18.928Z,8.73
2022-11-22T04:43:40.819Z,12.10
2022-11-22T04:44:42.973Z,11.57
2022-11-22T04:45:44.564Z,12.37
2022-11-22T04:46:45.940Z,13.50
2022-11-22T04:47:59.456Z,7.87
2022-11-22T04:49:00.766Z,11.60
2022-11-22T04:50:02.737Z,8.53
2022-11-22T04:51:23.417Z,6.27
2022-11-22T04:52:43.501Z,9.23
2022-11-22T04:53:44.941Z,11.83
2022-11-22T04:54:46.273Z,10.47
2022-11-22T04:55:47.602Z,15.47
2022-11-22T04:56:48.997Z,13.10
2022-11-22T04:57:54.438Z,10.23
2022-11-22T04:58:59.096Z,11.30
2022-11-22T05:00:00.462Z,9.93
2022-11-22T05:01:01.842Z,7.87
2022-11-22T05:02:03.316Z,7.87
2022-11-22T05:03:05.351Z,13.30
2022-11-22T05:04:06.721Z,11.10
2022-11-22T05:05:08.418Z,10.77
2022-11-22T05:06:12.627Z,11.90
2022-11-22T05:07:14.140Z,13.90
2022-11-22T05:08:15.684Z,11.40
2022-11-22T05:09:17.156Z,13.80
2022-11-22T05:10:22.914Z,15.13
2022-11-22T05:11:27.622Z,12.63
2022-11-22T05:12:28.947Z,10.60
2022-11-22T05:13:30.335Z,10.60
2022-11-22T05:14:31.649Z,12.67
2022-11-22T05:15:35.952Z,13.57
2022-11-22T05:16:37.242Z,14.77
2022-11-22T05:17:38.782Z,13.87
2022-11-22T05:18:40.288Z,15.17
2022-11-22T05:19:44.952Z,10.67
2022-11-22T05:20:50.678Z,12.17
2022-11-22T05:21:52.029Z,12.20
2022-11-22T05:23:11.868Z,8.07
2022-11-22T05:24:13.143Z,13.63
2022-11-22T05:25:14.501Z,11.23
2022-11-22T05:26:15.829Z,13.37
2022-11-22T05:27:17.196Z,10.67
2022-11-22T05:28:18.522Z,11.77
2022-11-22T05:29:19.913Z,9.43
2022-11-22T05:30:21.265Z,10.97
2022-11-22T05:31:23.705Z,16.97
2022-11-22T05:32:25.112Z,9.90
2022-11-22T05:33:26.565Z,14.53
2022-11-22T05:34:27.939Z,11.27
2022-11-22T05:35:29.287Z,11.27
2022-11-22T05:36:31.870Z,11.53
2022-11-22T05:37:33.151Z,13.23
2022-11-22T05:38:38.059Z,9.40
2022-11-22T05:39:39.370Z,12.90
2022-11-22T05:40:40.725Z,8.97
2022-11-22T05:41:55.697Z,13.70
2022-11-22T05:42:57.418Z,10.90
2022-11-22T05:43:58.828Z,13.10
2022-11-22T05:45:00.256Z,13.83
2022-11-22T05:46:19.468Z,8.77
2022-11-22T05:47:23.758Z,11.70
2022-11-22T05:48:26.400Z,15.00
2022-11-22T05:49:27.845Z,11.53
2022-11-22T05:50:29.265Z,14.43
2022-11-22T05:51:34.479Z,9.00
2022-11-22T05:52:36.909Z,15.33
2022-11-22T05:53:38.681Z,11.10
2022-11-22T05:54:40.043Z,10.43
2022-11-22T05:55:41.635Z,12.47
2022-11-22T05:56:42.960Z,11.93
2022-11-22T05:57:44.250Z,13.23
2022-11-22T05:58:45.959Z,19.73
2022-11-22T05:59:47.388Z,13.53
2022-11-22T06:00:48.735Z,17.00
2022-11-22T06:01:50.160Z,14.13
2022-11-22T06:02:51.567Z,11.20
2022-11-22T06:03:52.978Z,8.70
2022-11-22T06:04:54.270Z,15.60
2022-11-22T06:05:55.586Z,12.50
2022-11-22T06:06:56.903Z,11.07
2022-11-22T06:08:02.563Z,12.90
2022-11-22T06:09:04.035Z,14.37
2022-11-22T06:10:05.521Z,11.87
2022-11-22T06:11:08.124Z,16.17
2022-11-22T06:12:09.500Z,13.70
2022-11-22T06:13:10.830Z,11.53
2022-11-22T06:14:12.177Z,8.80
2022-11-22T06:15:13.504Z,9.97
2022-11-22T06:16:15.180Z,14.50
2022-11-22T06:17:16.649Z,12.37
2022-11-22T06:18:17.949Z,15.47
2022-11-22T06:19:19.247Z,14.00
2022-11-22T06:20:20.540Z,11.77
2022-11-22T06:21:23.908Z,18.00
2022-11-22T06:22:25.242Z,15.17
2022-11-22T06:23:27.480Z,16.23
2022-11-22T06:24:28.804Z,15.30
2022-11-22T06:25:30.196Z,16.70
2022-11-22T06:26:36.120Z,17.30
2022-11-22T06:27:40.383Z,15.70
2022-11-22T06:28:41.791Z,12.17
2022-11-22T06:29:43.656Z,13.60
2022-11-22T06:30:45.058Z,12.80
2022-11-22T06:31:46.380Z,9.83
2022-11-22T06:32:47.651Z,16.10
2022-11-22T06:33:49.131Z,10.97
2022-11-22T06:34:50.761Z,10.40
2022-11-22T06:35:52.066Z,15.07
2022-11-22T06:36:53.378Z,10.20
2022-11-22T06:38:00.327Z,10.40
2022-11-22T06:39:04.696Z,9.07
2022-11-22T06:40:08.334Z,11.00
2022-11-22T06:41:10.749Z,16.83
2022-11-22T06:42:12.132Z,13.73
2022-11-22T06:43:13.485Z,9.97
2022-11-22T06:44:14.837Z,13.80
2022-11-22T06:45:16.260Z,11.43
2022-11-22T06:46:18.500Z,11.73
2022-11-22T06:47:19.859Z,14.03
2022-11-22T06:48:21.277Z,14.77
2022-11-22T06:49:22.644Z,13.07
2022-11-22T06:50:23.980Z,9.60
2022-11-22T06:51:26.438Z,14.57
2022-11-22T06:52:27.732Z,13.03
2022-11-22T06:53:46.306Z,9.80
2022-11-22T06:54:48.438Z,13.93
2022-11-22T06:55:51.371Z,14.23
2022-11-22T06:56:53.927Z,16.17
2022-11-22T06:57:55.299Z,13.17
2022-11-22T06:58:56.687Z,18.93
2022-11-22T06:59:58.074Z,17.57
2022-11-22T07:01:00.441Z,14.80
2022-11-22T07:02:06.354Z,12.67
2022-11-22T07:03:08.314Z,13.07
2022-11-22T07:04:10.000Z,11.77
2022-11-22T07:05:25.611Z,14.17
2022-11-22T07:06:28.483Z,16.17
2022-11-22T07:07:30.046Z,19.20
2022-11-22T07:08:31.529Z,18.10
2022-11-22T07:09:33.169Z,14.47
2022-11-22T07:10:36.494Z,12.83
2022-11-22T07:11:38.100Z,11.90
2022-11-22T07:12:39.366Z,9.47
2022-11-22T07:13:41.291Z,15.23
2022-11-22T07:14:42.656Z,14.07
2022-11-22T07:15:44.129Z,13.33
2022-11-22T07:16:45.433Z,18.17
2022-11-22T07:17:46.729Z,13.30
2022-11-22T07:18:48.509Z,17.87
2022-11-22T07:19:49.803Z,11.77
2022-11-22T07:20:51.374Z,11.93
2022-11-22T07:21:53.418Z,11.10
2022-11-22T07:22:54.704Z,12.13
2022-11-22T07:23:56.336Z,10.13
2022-11-22T07:24:57.630Z,12.80
2022-11-22T07:25:59.152Z,13.10
2022-11-22T07:27:00.429Z,10.23
2022-11-22T07:28:01.704Z,8.63
2022-11-22T07:29:03.979Z,12.30
2022-11-22T07:30:05.599Z,12.63
2022-11-22T07:31:08.493Z,12.13
2022-11-22T07:32:09.814Z,10.90
2022-11-22T07:33:11.122Z,13.37
2022-11-22T07:34:12.470Z,12.03
2022-11-22T07:35:13.780Z,12.90
2022-11-22T07:36:16.668Z,13.40
2022-11-22T07:37:18.211Z,8.37
2022-11-22T07:38:19.516Z,10.83
2022-11-22T07:39:21.114Z,15.67
2022-11-22T07:40:22.423Z,14.77
2022-11-22T07:41:23.804Z,11.07
2022-11-22T07:42:26.348Z,11.73
2022-11-22T07:43:28.912Z,11.13
2022-11-22T07:44:30.287Z,11.27
2022-11-22T07:45:31.612Z,13.40
2022-11-22T07:46:33.162Z,17.93
2022-11-22T07:47:34.463Z,8.70
2022-11-22T07:48:35.738Z,9.67
2022-11-22T07:49:37.111Z,17.50
2022-11-22T07:50:38.460Z,14.07
2022-11-22T07:51:39.788Z,12.53
2022-11-22T07:52:41.181Z,10.63
2022-11-22T07:53:42.538Z,10.77
2022-11-22T07:54:43.826Z,11.60
2022-11-22T07:55:45.135Z,9.87
2022-11-22T07:56:46.445Z,11.13
2022-11-22T07:57:47.739Z,13.73
2022-11-22T07:58:49.088Z,10.83
2022-11-22T07:59:50.379Z,12.73
2022-11-22T08:00:51.656Z,8.73
2022-11-22T08:01:53.079Z,14.67
2022-11-22T08:02:54.494Z,10.60
2022-11-22T08:03:56.286Z,12.37
2022-11-22T08:04:57.668Z,13.00
2022-11-22T08:06:00.013Z,13.60
2022-11-22T08:07:01.323Z,10.03
2022-11-22T08:08:02.711Z,14.27
2022-11-22T08:09:04.036Z,12.37
2022-11-22T08:10:05.659Z,12.63
2022-11-22T08:11:07.314Z,9.13
2022-11-22T08:12:08.684Z,12.73
2022-11-22T08:13:10.014Z,10.60
2022-11-22T08:14:11.370Z,10.30
2022-11-22T08:15:13.873Z,16.53
2022-11-22T08:16:15.969Z,10.80
2022-11-22T08:17:17.622Z,14.10
2022-11-22T08:18:19.064Z,10.50
2022-11-22T08:19:20.446Z,12.27
2022-11-22T08:20:21.827Z,12.07
2022-11-22T08:21:23.195Z,10.43
2022-11-22T08:22:24.499Z,12.13
2022-11-22T08:23:25.892Z,12.07
2022-11-22T08:24:27.272Z,10.10
2022-11-22T08:25:28.579Z,13.00
2022-11-22T08:26:29.894Z,12.03
2022-11-22T08:27:31.232Z,12.70
2022-11-22T08:28:32.716Z,12.83
2022-11-22T08:29:34.679Z,11.90
2022-11-22T08:30:35.996Z,12.37
2022-11-22T08:31:37.373Z,9.27
2022-11-22T08:32:38.707Z,10.83
2022-11-22T08:33:40.285Z,10.10
2022-11-22T08:34:46.923Z,12.53
2022-11-22T08:35:49.680Z,11.60
2022-11-22T08:36:50.989Z,10.20
2022-11-22T08:37:54.804Z,10.37
2022-11-22T08:38:56.087Z,9.37
2022-11-22T08:39:57.471Z,9.50
2022-11-22T08:40:58.867Z,6.77
2022-11-22T08:42:00.196Z,9.20
2022-11-22T08:43:01.472Z,8.23
2022-11-22T08:44:03.054Z,8.13
2022-11-22T08:45:05.426Z,9.00
2022-11-22T08:46:07.074Z,8.23
2022-11-22T08:47:08.412Z,7.77
2022-11-22T08:48:09.763Z,8.47
2022-11-22T08:49:11.323Z,8.13
2022-11-22T08:50:12.643Z,9.13
2022-11-22T08:51:14.163Z,10.53
2022-11-22T08:52:15.547Z,8.17
2022-11-22T08:53:16.859Z,8.37
2022-11-22T08:54:18.152Z,9.10
2022-11-22T08:55:20.565Z,11.60
2022-11-22T08:56:21.880Z,8.80
2022-11-22T08:57:23.178Z,8.73
2022-11-22T08:58:24.488Z,10.77
2022-11-22T08:59:25.803Z,10.53
2022-11-22T09:00:31.835Z,9.80
2022-11-22T09:01:34.674Z,9.03
2022-11-22T09:02:36.078Z,11.10
2022-11-22T09:03:37.725Z,10.07
2022-11-22T09:04:39.050Z,9.67
2022-11-22T09:08:23.126Z,7.13
2022-11-22T09:09:39.729Z,10.27
2022-11-22T09:10:41.099Z,6.57
2022-11-22T09:11:42.409Z,10.63
2022-11-22T09:12:44.905Z,10.17
2022-11-22T09:13:46.489Z,8.20
2022-11-22T09:14:47.781Z,8.20
2022-11-22T09:15:49.136Z,8.10
2022-11-22T09:16:50.588Z,8.97
2022-11-22T09:17:51.887Z,8.53
2022-11-22T09:18:53.158Z,5.43
2022-11-22T09:19:54.442Z,8.33
2022-11-22T09:20:59.318Z,9.07
2022-11-22T09:22:00.600Z,13.03
2022-11-22T09:23:04.081Z,6.70
2022-11-22T09:24:05.581Z,7.63
2022-11-22T09:25:07.154Z,7.73
2022-11-22T09:26:09.450Z,6.23
2022-11-22T09:27:10.762Z,6.03
2022-11-22T09:28:12.087Z,12.73
2022-11-22T09:29:14.182Z,7.37
2022-11-22T09:30:15.640Z,9.00
2022-11-22T09:31:19.375Z,6.87
2022-11-22T09:32:20.721Z,11.13
2022-11-22T09:33:22.055Z,6.23
2022-11-22T09:34:23.406Z,10.07
2022-11-22T09:35:24.763Z,7.23
2022-11-22T09:36:26.634Z,9.37
2022-11-22T09:37:28.007Z,9.77
2022-11-22T09:38:29.746Z,6.00
2022-11-22T09:39:31.283Z,7.87
2022-11-22T09:40:33.046Z,9.13
2022-11-22T09:41:43.179Z,8.90
2022-11-22T09:42:49.641Z,10.50
2022-11-22T09:44:02.170Z,8.17
2022-11-22T09:45:29.211Z,9.10
2022-11-22T09:46:42.437Z,6.53
2022-11-22T09:47:53.023Z,9.93
2022-11-22T09:48:54.319Z,8.90
2022-11-22T09:50:10.010Z,5.73
2022-11-22T09:51:19.922Z,10.37
2022-11-22T09:52:21.224Z,11.17
2022-11-22T09:53:24.849Z,9.03
2022-11-22T09:54:28.568Z,6.93
2022-11-22T09:55:35.261Z,7.27
2022-11-22T09:56:37.517Z,6.73
2022-11-22T09:57:44.230Z,9.80
2022-11-22T09:59:05.250Z,6.20
2022-11-22T10:00:11.440Z,11.07
2022-11-22T10:01:40.625Z,12.87
2022-11-22T10:02:59.469Z,8.13
2022-11-22T10:04:01.625Z,11.80
2022-11-22T10:05:05.236Z,8.83
2022-11-22T10:06:08.456Z,9.20
2022-11-22T10:07:35.824Z,6.80
2022-11-22T10:08:40.559Z,6.70
2022-11-22T10:09:51.691Z,6.87
2022-11-22T10:10:53.698Z,10.43
2022-11-22T10:11:58.381Z,6.63
2022-11-22T10:13:03.875Z,11.20
2022-11-22T10:14:12.165Z,8.23
2022-11-22T10:15:27.032Z,8.37
2022-11-22T10:16:50.682Z,7.27
2022-11-22T10:17:56.700Z,9.10
2022-11-22T10:19:04.936Z,6.97
2022-11-22T10:20:19.813Z,7.07
2022-11-22T10:21:21.284Z,8.03
2022-11-22T10:22:23.026Z,6.20
2022-11-22T10:23:28.099Z,5.43
2022-11-22T10:24:29.503Z,6.67
2022-11-22T10:25:41.166Z,9.50
2022-11-22T10:26:42.771Z,5.40
2022-11-22T10:27:45.184Z,8.80
2022-11-22T10:29:04.976Z,6.90
2022-11-22T10:30:06.800Z,6.80
2022-11-22T10:31:15.054Z,8.50
2022-11-22T10:32:19.206Z,9.00
2022-11-22T10:33:41.287Z,5.80
2022-11-22T10:34:45.413Z,9.13
2022-11-22T10:35:52.948Z,7.90
2022-11-22T10:37:19.546Z,6.40
2022-11-22T10:38:23.909Z,8.03
2022-11-22T10:39:34.098Z,7.23
2022-11-22T10:40:41.819Z,9.23
2022-11-22T10:41:49.148Z,8.07
2022-11-22T10:42:56.138Z,8.37
2022-11-22T10:44:00.574Z,6.27
2022-11-22T10:45:01.861Z,7.70
2022-11-22T10:46:09.634Z,5.17
2022-11-22T10:47:27.290Z,6.77
2022-11-22T10:48:37.814Z,5.77
2022-11-22T10:50:00.996Z,4.80
2022-11-22T10:51:12.397Z,9.17
2022-11-22T10:52:16.634Z,8.27
2022-11-22T10:53:25.545Z,5.67
2022-11-22T10:54:38.465Z,7.57
2022-11-22T10:55:53.945Z,7.20
2022-11-22T10:56:59.848Z,9.17
2022-11-22T10:58:19.893Z,7.70
2022-11-22T10:59:32.680Z,10.37
2022-11-22T11:00:36.317Z,7.10
2022-11-22T11:01:45.265Z,8.30
2022-11-22T11:02:46.637Z,5.93
2022-11-22T11:03:49.082Z,5.50
2022-11-22T11:04:50.954Z,8.00
2022-11-22T11:07:20.667Z,6.77
2022-11-22T11:08:54.187Z,5.83
2022-11-22T11:10:10.822Z,7.30
2022-11-22T11:11:13.976Z,7.13
2022-11-22T11:12:18.823Z,8.83
2022-11-22T11:13:22.702Z,7.57
2022-11-22T11:14:39.320Z,5.33
2022-11-22T11:15:45.298Z,7.73
2022-11-22T11:16:46.957Z,5.70
2022-11-22T11:17:53.057Z,10.97
2022-11-22T11:19:06.336Z,7.67
2022-11-22T11:20:24.371Z,5.93
2022-11-22T11:21:26.917Z,9.33
2022-11-22T11:22:58.671Z,6.47
2022-11-22T11:23:51.968Z,9.40
2022-11-22T11:24:53.268Z,6.40
2022-11-22T11:25:54.770Z,6.53
2022-11-22T11:26:56.992Z,7.10
2022-11-22T11:28:04.529Z,11.60
2022-11-22T11:29:17.905Z,6.87
2022-11-22T11:30:19.308Z,6.23
2022-11-22T11:31:21.723Z,6.97
2022-11-22T11:32:23.051Z,6.93
2022-11-22T11:33:29.502Z,7.87
2022-11-22T11:34:30.954Z,10.40
2022-11-22T11:35:33.594Z,7.47
2022-11-22T11:36:36.518Z,3.83
2022-11-22T11:37:38.390Z,6.13
2022-11-22T11:38:42.756Z,8.30
2022-11-22T11:39:46.128Z,7.00
2022-11-22T11:40:47.436Z,9.27
2022-11-22T11:41:48.859Z,5.20
2022-11-22T11:42:50.222Z,4.87
2022-11-22T11:43:55.455Z,5.37
2022-11-22T11:45:16.883Z,7.70
2022-11-22T11:46:19.679Z,5.47
2022-11-22T11:47:32.101Z,5.73
2022-11-22T11:48:41.331Z,6.50
2022-11-22T11:49:49.798Z,6.13
2022-11-22T11:50:51.176Z,6.30
2022-11-22T11:51:56.366Z,5.23
2022-11-22T11:53:05.407Z,7.67
2022-11-22T11:54:11.248Z,5.13
2022-11-22T11:55:16.265Z,4.87
2022-11-22T11:56:21.824Z,4.57
2022-11-22T11:57:31.400Z,6.43
2022-11-22T11:58:32.813Z,9.20
2022-11-22T11:59:37.244Z,7.30
2022-11-22T12:00:39.746Z,4.90
2022-11-22T12:01:50.163Z,5.67
2022-11-22T12:02:59.813Z,5.57
2022-11-22T12:04:06.053Z,6.20
2022-11-22T12:05:24.553Z,3.87
2022-11-22T12:06:29.731Z,5.57
2022-11-22T12:07:34.249Z,5.77
2022-11-22T12:08:35.837Z,7.73
2022-11-22T12:09:43.316Z,5.80
2022-11-22T12:10:49.830Z,5.73
2022-11-22T12:11:51.665Z,5.37
2022-11-22T12:13:00.195Z,8.37
2022-11-22T12:14:22.216Z,6.90
2022-11-22T12:15:36.276Z,6.37
2022-11-22T12:16:39.860Z,4.07
2022-11-22T12:17:48.897Z,4.33
2022-11-22T12:18:50.183Z,7.53
2022-11-22T12:19:58.367Z,7.17
2022-11-22T12:21:13.594Z,5.73
2022-11-22T12:22:47.784Z,7.83
2022-11-22T12:23:50.871Z,6.93
2022-11-22T12:25:24.753Z,5.90
2022-11-22T12:26:22.657Z,5.60
2022-11-22T12:27:24.058Z,5.30
2022-11-22T12:28:26.656Z,6.57
2022-11-22T12:29:28.071Z,4.37
2022-11-22T12:30:30.054Z,8.07
2022-11-22T12:31:34.498Z,5.70
2022-11-22T12:32:38.140Z,6.83
2022-11-22T12:33:43.859Z,6.90
2022-11-22T12:35:00.161Z,6.90
2022-11-22T12:36:03.510Z,6.13
2022-11-22T12:37:14.250Z,3.53
2022-11-22T12:38:20.447Z,5.83
2022-11-22T12:39:24.126Z,7.07
2022-11-22T12:40:26.663Z,6.83
2022-11-22T12:41:28.748Z,5.97
2022-11-22T12:42:33.471Z,8.47
2022-11-22T12:43:34.798Z,7.37
2022-11-22T12:44:38.647Z,4.83
2022-11-22T12:45:44.539Z,5.73
2022-11-22T12:46:51.426Z,5.83
2022-11-22T12:47:53.470Z,6.97
2022-11-22T12:48:56.658Z,8.40
2022-11-22T12:50:16.882Z,4.63
2022-11-22T12:51:27.242Z,7.47
2022-11-22T12:52:47.522Z,4.60
2022-11-22T12:53:49.723Z,5.20
2022-11-22T12:55:03.320Z,4.83
2022-11-22T12:56:10.870Z,6.63
2022-11-22T12:57:24.008Z,4.63
2022-11-22T12:58:35.398Z,6.80
2022-11-22T12:59:59.605Z,4.67
2022-11-22T13:01:10.524Z,7.33
2022-11-22T13:02:14.785Z,5.27
2022-11-22T13:03:20.004Z,5.83
2022-11-22T13:04:32.848Z,7.17
2022-11-22T13:05:37.268Z,3.97
2022-11-22T13:06:45.178Z,5.33
2022-11-22T13:08:05.079Z,5.43
2022-11-22T13:09:10.688Z,5.50
2022-11-22T13:10:16.060Z,8.23
2022-11-22T13:11:17.394Z,6.00
2022-11-22T13:12:26.655Z,6.53
2022-11-22T13:13:31.378Z,6.77
2022-11-22T13:14:35.575Z,4.83
2022-11-22T13:15:38.258Z,3.83
2022-11-22T13:16:39.576Z,3.73
2022-11-22T13:17:40.951Z,8.53
2022-11-22T13:18:48.095Z,3.93
2022-11-22T13:19:57.143Z,3.70
2022-11-22T13:21:17.338Z,4.47
2022-11-22T13:22:21.711Z,4.97
2022-11-22T13:23:26.129Z,6.67
2022-11-22T13:24:37.747Z,2.83
2022-11-22T13:25:42.897Z,5.00
2022-11-22T13:26:49.976Z,5.27
2022-11-22T13:27:52.000Z,7.33
2022-11-22T13:28:53.525Z,4.13
2022-11-22T13:29:56.168Z,6.30
2022-11-22T13:31:23.427Z,5.17
2022-11-22T13:32:26.936Z,7.83
2022-11-22T13:33:28.348Z,5.10
2022-11-22T13:34:30.204Z,3.80
2022-11-22T13:35:34.955Z,4.77
2022-11-22T13:36:38.019Z,6.33
2022-11-22T13:37:47.050Z,9.13
2022-11-22T13:38:48.395Z,4.23
2022-11-22T13:39:50.261Z,6.50
2022-11-22T13:40:51.636Z,5.40
2022-11-22T13:42:00.394Z,4.97
2022-11-22T13:43:19.617Z,6.87
2022-11-22T13:44:23.054Z,3.43
2022-11-22T13:45:24.958Z,7.83
2022-11-22T13:46:50.551Z,4.77
2022-11-22T13:47:52.105Z,6.63
2022-11-22T13:48:53.381Z,4.17
2022-11-22T13:49:54.975Z,7.93
2022-11-22T13:50:56.453Z,7.37
2022-11-22T13:51:58.780Z,4.70
2022-11-22T13:53:15.617Z,3.90
2022-11-22T13:54:32.289Z,6.73
2022-11-22T13:55:41.584Z,5.27
2022-11-22T13:56:43.591Z,7.07
2022-11-22T13:57:44.977Z,5.63
2022-11-22T13:58:52.814Z,6.00
2022-11-22T14:00:12.540Z,5.77
2022-11-22T14:01:33.384Z,4.33
2022-11-22T14:02:34.870Z,6.37
2022-11-22T14:03:37.749Z,6.13
2022-11-22T14:04:39.738Z,3.70
2022-11-22T14:05:42.379Z,4.60
2022-11-22T14:07:02.684Z,4.60
2022-11-22T14:08:05.233Z,4.17